createdAt,value
2018-09-10T00:01:27.830Z,1.80
2018-09-10T00:03:56.331Z,2.23
2018-09-10T00:06:24.803Z,1.90
2018-09-10T00:08:53.110Z,1.90
2018-09-10T00:11:22.015Z,2.10
2018-09-10T00:13:50.811Z,2.03
2018-09-10T00:16:19.183Z,1.90
2018-09-10T00:18:47.649Z,2.07
2018-09-10T00:21:15.938Z,2.30
2018-09-10T00:23:44.396Z,2.40
2018-09-10T00:26:12.846Z,2.13
2018-09-10T00:28:41.258Z,2.30
2018-09-10T00:31:09.686Z,1.90
2018-09-10T00:33:38.010Z,2.10
2018-09-10T00:36:06.426Z,2.23
2018-09-10T00:38:34.767Z,2.17
2018-09-10T00:41:03.094Z,1.90
2018-09-10T00:43:31.460Z,1.87
2018-09-10T00:45:59.819Z,2.00
2018-09-10T00:48:28.189Z,1.93
2018-09-10T00:50:56.659Z,1.70
2018-09-10T00:53:25.006Z,1.90
2018-09-10T00:55:53.362Z,1.63
2018-09-10T00:58:21.825Z,1.70
2018-09-10T01:00:50.586Z,1.90
2018-09-10T01:03:18.935Z,1.97
2018-09-10T01:05:47.308Z,2.20
2018-09-10T01:08:15.628Z,1.90
2018-09-10T01:10:44.010Z,1.60
2018-09-10T01:13:12.394Z,1.60
2018-09-10T01:15:40.781Z,2.07
2018-09-10T01:18:09.152Z,1.73
2018-09-10T01:20:37.563Z,2.20
2018-09-10T01:23:05.907Z,1.70
2018-09-10T01:25:34.295Z,2.10
2018-09-10T01:28:02.771Z,1.53
2018-09-10T01:30:31.136Z,1.80
2018-09-10T01:32:59.769Z,2.17
2018-09-10T01:35:32.622Z,2.07
2018-09-10T01:38:00.978Z,1.93
2018-09-10T01:40:29.362Z,1.87
2018-09-10T01:42:57.743Z,2.00
2018-09-10T01:45:26.121Z,2.20
2018-09-10T01:47:54.530Z,1.80
2018-09-10T01:50:22.923Z,2.03
2018-09-10T01:52:51.235Z,2.00
2018-09-10T01:55:19.627Z,2.37
2018-09-10T01:57:48.016Z,1.97
2018-09-10T02:00:16.539Z,1.90
2018-09-10T02:02:44.859Z,2.00
2018-09-10T02:05:13.271Z,2.10
2018-09-10T02:07:41.595Z,1.93
2018-09-10T02:10:09.895Z,1.60
2018-09-10T02:12:38.331Z,1.80
2018-09-10T02:15:06.918Z,2.00
2018-09-10T02:17:35.231Z,2.30
2018-09-10T02:20:03.619Z,2.20
2018-09-10T02:22:31.979Z,1.63
2018-09-10T02:25:00.250Z,1.80
2018-09-10T02:27:28.621Z,1.97
2018-09-10T02:29:56.938Z,1.90
2018-09-10T02:32:25.328Z,2.10
2018-09-10T02:34:53.645Z,1.70
2018-09-10T02:37:22.022Z,1.67
2018-09-10T02:39:50.406Z,1.90
2018-09-10T02:42:18.767Z,1.87
2018-09-10T02:44:47.110Z,1.47
2018-09-10T02:47:15.414Z,1.93
2018-09-10T02:49:43.750Z,1.97
2018-09-10T02:52:12.143Z,1.67
2018-09-10T02:54:40.538Z,1.77
2018-09-10T02:57:09.122Z,1.60
2018-09-10T02:59:37.449Z,1.70
2018-09-10T03:02:05.911Z,1.77
2018-09-10T03:04:34.307Z,1.80
2018-09-10T03:07:02.744Z,2.27
2018-09-10T03:09:31.138Z,1.50
2018-09-10T03:11:59.462Z,2.00
2018-09-10T03:14:27.789Z,1.60
2018-09-10T03:16:56.133Z,2.17
2018-09-10T03:19:24.486Z,1.70
2018-09-10T03:21:52.795Z,1.83
2018-09-10T03:24:21.175Z,1.80
2018-09-10T03:26:49.523Z,1.70
2018-09-10T03:29:17.849Z,1.57
2018-09-10T03:31:46.176Z,1.57
2018-09-10T03:34:14.510Z,1.60
2018-09-10T03:36:42.927Z,1.80
2018-09-10T03:39:11.631Z,1.43
2018-09-10T03:41:39.980Z,2.10
2018-09-10T03:44:08.363Z,1.70
2018-09-10T03:46:36.742Z,2.10
2018-09-10T03:49:05.170Z,1.50
2018-09-10T03:51:33.635Z,1.80
2018-09-10T03:54:02.206Z,1.53
2018-09-10T03:56:30.711Z,1.70
2018-09-10T03:58:59.012Z,2.10
2018-09-10T04:01:27.420Z,1.60
2018-09-10T04:03:55.755Z,1.83
2018-09-10T04:06:24.150Z,2.33
2018-09-10T04:08:52.534Z,1.60
2018-09-10T04:11:20.875Z,1.60
2018-09-10T04:13:49.324Z,2.20
2018-09-10T04:16:17.607Z,2.00
2018-09-10T04:18:46.490Z,1.80
2018-09-10T04:21:14.970Z,2.23
2018-09-10T04:23:43.339Z,2.10
2018-09-10T04:26:11.799Z,1.83
2018-09-10T04:28:40.215Z,1.60
2018-09-10T04:31:08.620Z,1.80
2018-09-10T04:33:37.092Z,1.53
2018-09-10T04:36:05.652Z,1.70
2018-09-10T04:38:34.060Z,1.80
2018-09-10T04:41:02.491Z,1.90
2018-09-10T04:43:30.988Z,1.60
2018-09-10T04:45:59.359Z,1.90
2018-09-10T04:48:27.778Z,1.93
2018-09-10T04:50:56.209Z,2.20
2018-09-10T04:53:24.847Z,1.50
2018-09-10T04:55:53.198Z,2.00
2018-09-10T04:58:21.868Z,2.10
2018-09-10T05:00:50.436Z,1.80
2018-09-10T05:03:18.859Z,1.80
2018-09-10T05:05:47.250Z,1.93
2018-09-10T05:08:15.651Z,1.93
2018-09-10T05:10:44.055Z,1.70
2018-09-10T05:13:12.505Z,1.80
2018-09-10T05:15:40.978Z,1.80
2018-09-10T05:18:09.393Z,2.40
2018-09-10T05:20:37.779Z,2.23
2018-09-10T05:23:06.211Z,2.13
2018-09-10T05:25:34.652Z,2.03
2018-09-10T05:28:03.100Z,1.97
2018-09-10T05:30:31.454Z,2.00
2018-09-10T05:33:00.706Z,2.40
2018-09-10T05:35:29.398Z,2.00
2018-09-10T05:37:57.839Z,2.20
2018-09-10T05:40:26.324Z,1.73
2018-09-10T05:42:54.668Z,1.60
2018-09-10T05:45:23.062Z,2.30
2018-09-10T05:47:51.421Z,1.43
2018-09-10T05:50:19.926Z,1.70
2018-09-10T05:52:48.239Z,1.50
2018-09-10T05:55:16.584Z,3.10
2018-09-10T05:57:44.933Z,2.17
2018-09-10T06:00:13.374Z,2.00
2018-09-10T06:02:41.736Z,1.90
2018-09-10T06:05:10.059Z,2.13
2018-09-10T06:07:38.437Z,1.60
2018-09-10T06:10:07.535Z,1.57
2018-09-10T06:12:35.917Z,1.43
2018-09-10T06:15:04.342Z,1.40
2018-09-10T06:17:32.656Z,1.80
2018-09-10T06:20:01.068Z,1.93
2018-09-10T06:22:29.818Z,1.73
2018-09-10T06:24:59.150Z,2.03
2018-09-10T06:27:27.548Z,1.70
2018-09-10T06:29:55.967Z,1.80
2018-09-10T06:32:24.391Z,1.77
2018-09-10T06:34:52.729Z,1.80
2018-09-10T06:37:21.100Z,1.73
2018-09-10T06:39:49.528Z,1.60
2018-09-10T06:42:18.012Z,1.63
2018-09-10T06:44:46.418Z,1.30
2018-09-10T06:47:14.860Z,1.37
2018-09-10T06:49:43.288Z,2.13
2018-09-10T06:52:11.746Z,1.57
2018-09-10T06:54:40.168Z,1.60
2018-09-10T06:57:08.607Z,1.43
2018-09-10T06:59:37.111Z,1.43
2018-09-10T07:02:05.620Z,1.83
2018-09-10T07:04:34.051Z,1.80
2018-09-10T07:07:02.471Z,2.00
2018-09-10T07:09:30.868Z,2.10
2018-09-10T07:11:59.234Z,2.30
2018-09-10T07:14:27.629Z,2.17
2018-09-10T07:16:55.931Z,1.43
2018-09-10T07:19:24.358Z,2.23
2018-09-10T07:21:52.962Z,1.67
2018-09-10T07:24:21.368Z,1.60
2018-09-10T07:26:49.844Z,1.50
2018-09-10T07:29:18.250Z,1.50
2018-09-10T07:31:46.643Z,1.40
2018-09-10T07:34:15.014Z,1.50
2018-09-10T07:36:43.368Z,1.60
2018-09-10T07:39:12.538Z,1.43
2018-09-10T07:41:40.939Z,1.30
2018-09-10T07:44:09.602Z,1.97
2018-09-10T07:46:38.308Z,1.60
2018-09-10T07:49:06.854Z,1.70
2018-09-10T07:51:35.223Z,1.87
2018-09-10T07:54:03.625Z,1.40
2018-09-10T07:56:32.111Z,1.40
2018-09-10T07:59:00.514Z,1.63
2018-09-10T08:01:29.020Z,1.83
2018-09-10T08:03:57.411Z,1.50
2018-09-10T08:06:25.834Z,1.40
2018-09-10T08:08:54.191Z,1.50
2018-09-10T08:11:22.595Z,1.40
2018-09-10T08:13:51.070Z,1.57
2018-09-10T08:16:19.488Z,1.93
2018-09-10T08:18:47.896Z,1.80
2018-09-10T08:21:16.333Z,1.60
2018-09-10T08:23:45.778Z,1.40
2018-09-10T08:26:14.360Z,1.90
2018-09-10T08:28:42.815Z,1.70
2018-09-10T08:31:11.249Z,1.20
2018-09-10T08:33:39.796Z,1.20
2018-09-10T08:36:08.194Z,1.60
2018-09-10T08:38:36.632Z,1.43
2018-09-10T08:41:05.089Z,1.70
2018-09-10T08:43:33.491Z,1.50
2018-09-10T08:46:01.922Z,1.87
2018-09-10T08:48:30.403Z,1.30
2018-09-10T08:50:58.727Z,1.67
2018-09-10T08:53:27.075Z,1.70
2018-09-10T08:55:55.761Z,1.40
2018-09-10T08:58:23.874Z,1.50
2018-09-10T09:00:52.269Z,1.67
2018-09-10T09:03:20.678Z,1.40
2018-09-10T09:05:49.142Z,1.43
2018-09-10T09:08:17.737Z,1.50
2018-09-10T09:10:46.095Z,1.70
2018-09-10T09:13:14.450Z,1.57
2018-09-10T09:15:42.824Z,1.70
2018-09-10T09:18:11.179Z,1.33
2018-09-10T09:20:39.522Z,1.30
2018-09-10T09:23:07.890Z,1.60
2018-09-10T09:25:36.301Z,1.53
2018-09-10T09:28:04.671Z,1.63
2018-09-10T09:30:33.087Z,1.60
2018-09-10T09:33:01.489Z,1.67
2018-09-10T09:35:36.026Z,1.50
2018-09-10T09:38:10.403Z,1.57
2018-09-10T09:40:44.023Z,1.70
2018-09-10T09:43:17.819Z,1.80
2018-09-10T09:45:51.343Z,1.73
2018-09-10T09:48:19.826Z,1.37
2018-09-10T09:50:48.229Z,1.90
2018-09-10T09:53:16.608Z,1.80
2018-09-10T09:55:44.979Z,1.50
2018-09-10T09:58:13.390Z,1.30
2018-09-10T10:00:47.006Z,1.40
2018-09-10T10:03:15.773Z,2.00
2018-09-10T10:05:44.667Z,1.67
2018-09-10T10:08:13.091Z,1.37
2018-09-10T10:10:41.461Z,1.47
2018-09-10T10:13:10.000Z,1.60
2018-09-10T10:15:38.416Z,1.50
2018-09-10T10:18:06.960Z,1.20
2018-09-10T10:20:35.982Z,1.20
2018-09-10T10:23:04.382Z,1.60
2018-09-10T10:25:32.812Z,1.40
2018-09-10T10:28:01.236Z,1.60
2018-09-10T10:30:29.641Z,1.47
2018-09-10T10:32:58.039Z,1.80
2018-09-10T10:35:26.469Z,2.00
2018-09-10T10:37:54.838Z,1.40
2018-09-10T10:40:23.299Z,1.70
2018-09-10T10:42:51.743Z,1.77
2018-09-10T10:45:20.141Z,1.57
2018-09-10T10:47:48.567Z,1.70
2018-09-10T10:50:17.014Z,2.03
2018-09-10T10:52:45.698Z,1.80
2018-09-10T10:55:14.069Z,2.30
2018-09-10T10:57:42.620Z,1.83
2018-09-10T11:00:11.162Z,2.07
2018-09-10T11:02:39.624Z,2.10
2018-09-10T11:05:08.035Z,2.60
2018-09-10T11:07:36.451Z,2.00
2018-09-10T11:10:05.290Z,2.17
2018-09-10T11:12:33.690Z,2.20
2018-09-10T11:15:02.082Z,2.70
2018-09-10T11:17:31.084Z,2.57
2018-09-10T11:19:59.591Z,2.37
2018-09-10T11:22:28.243Z,2.77
2018-09-10T11:24:56.559Z,2.40
2018-09-10T11:27:25.178Z,2.57
2018-09-10T11:29:53.665Z,2.43
2018-09-10T11:32:22.138Z,2.60
2018-09-10T11:34:50.575Z,2.70
2018-09-10T11:37:18.943Z,2.57
2018-09-10T11:39:47.307Z,2.27
2018-09-10T11:42:15.647Z,2.30
2018-09-10T11:44:43.978Z,2.57
2018-09-10T11:47:12.365Z,2.23
2018-09-10T11:49:40.846Z,2.47
2018-09-10T11:52:09.327Z,2.80
2018-09-10T11:54:37.678Z,2.97
2018-09-10T11:57:06.063Z,2.97
2018-09-10T11:59:34.396Z,2.50
2018-09-10T12:02:02.885Z,2.70
2018-09-10T12:04:31.173Z,2.97
2018-09-10T12:06:59.614Z,3.83
2018-09-10T12:09:27.954Z,3.30
2018-09-10T12:11:56.372Z,3.07
2018-09-10T12:14:24.767Z,3.37
2018-09-10T12:16:53.207Z,4.47
2018-09-10T12:19:21.578Z,4.17
2018-09-10T12:21:50.098Z,2.93
2018-09-10T12:24:18.497Z,5.30
2018-09-10T12:26:46.965Z,4.70
2018-09-10T12:29:15.345Z,3.87
2018-09-10T12:31:43.750Z,3.70
2018-09-10T12:34:12.178Z,4.20
2018-09-10T12:36:40.569Z,4.13
2018-09-10T12:39:10.331Z,4.30
2018-09-10T12:41:38.798Z,4.30
2018-09-10T12:44:07.695Z,4.07
2018-09-10T12:46:36.526Z,4.10
2018-09-10T12:49:04.904Z,4.63
2018-09-10T12:51:33.362Z,4.20
2018-09-10T12:54:01.782Z,4.73
2018-09-10T12:56:30.216Z,4.20
2018-09-10T12:58:58.668Z,4.70
2018-09-10T13:01:27.013Z,3.93
2018-09-10T13:03:55.435Z,4.90
2018-09-10T13:06:23.859Z,4.87
2018-09-10T13:08:52.558Z,5.30
2018-09-10T13:11:20.962Z,4.90
2018-09-10T13:13:49.532Z,6.03
2018-09-10T13:16:17.924Z,5.33
2018-09-10T13:18:46.345Z,5.67
2018-09-10T13:21:14.766Z,4.97
2018-09-10T13:23:43.212Z,5.40
2018-09-10T13:26:11.675Z,6.57
2018-09-10T13:28:40.084Z,5.90
2018-09-10T13:31:08.471Z,5.50
2018-09-10T13:33:36.862Z,5.47
2018-09-10T13:36:05.250Z,5.23
2018-09-10T13:38:33.720Z,5.47
2018-09-10T13:41:02.199Z,5.63
2018-09-10T13:43:30.577Z,5.50
2018-09-10T13:45:58.973Z,6.40
2018-09-10T13:48:27.429Z,5.47
2018-09-10T13:50:55.861Z,6.00
2018-09-10T13:53:24.277Z,5.00
2018-09-10T13:55:52.652Z,5.77
2018-09-10T13:58:21.249Z,6.60
2018-09-10T14:00:49.674Z,6.50
2018-09-10T14:03:18.050Z,6.20
2018-09-10T14:05:46.443Z,6.20
2018-09-10T14:08:14.854Z,6.33
2018-09-10T14:10:43.288Z,6.43
2018-09-10T14:13:11.745Z,6.70
2018-09-10T14:15:40.136Z,5.57
2018-09-10T14:18:08.797Z,6.27
2018-09-10T14:20:37.199Z,7.63
2018-09-10T14:23:05.613Z,6.20
2018-09-10T14:25:34.015Z,5.47
2018-09-10T14:28:02.448Z,5.93
2018-09-10T14:30:30.910Z,5.30
2018-09-10T14:32:59.232Z,6.10
2018-09-10T14:35:27.561Z,6.43
2018-09-10T14:37:55.930Z,5.57
2018-09-10T14:40:24.334Z,6.00
2018-09-10T14:42:52.783Z,5.93
2018-09-10T14:45:21.172Z,6.47
2018-09-10T14:47:49.567Z,5.90
2018-09-10T14:50:18.250Z,6.50
2018-09-10T14:52:46.630Z,6.53
2018-09-10T14:55:15.025Z,5.90
2018-09-10T14:57:43.384Z,6.87
2018-09-10T15:00:17.066Z,6.20
2018-09-10T15:02:45.352Z,6.50
2018-09-10T15:05:13.656Z,6.40
2018-09-10T15:07:42.222Z,6.50
2018-09-10T15:10:10.484Z,6.60
2018-09-10T15:12:38.879Z,7.67
2018-09-10T15:15:07.210Z,6.17
2018-09-10T15:17:35.794Z,6.30
2018-09-10T15:20:04.211Z,7.47
2018-09-10T15:22:32.647Z,6.37
2018-09-10T15:25:01.048Z,7.40
2018-09-10T15:27:29.460Z,7.47
2018-09-10T15:29:57.878Z,7.90
2018-09-10T15:32:26.240Z,7.20
2018-09-10T15:34:54.838Z,8.17
2018-09-10T15:37:23.192Z,8.00
2018-09-10T15:39:51.686Z,6.90
2018-09-10T15:42:20.105Z,6.70
2018-09-10T15:44:48.553Z,7.07
2018-09-10T15:47:16.971Z,7.00
2018-09-10T15:49:45.380Z,7.50
2018-09-10T15:52:13.810Z,6.97
2018-09-10T15:54:42.299Z,8.03
2018-09-10T15:57:10.874Z,8.07
2018-09-10T15:59:39.337Z,7.90
2018-09-10T16:02:07.843Z,7.53
2018-09-10T16:04:36.241Z,7.90
2018-09-10T16:07:04.600Z,8.27
2018-09-10T16:09:33.012Z,7.37
2018-09-10T16:12:01.410Z,8.43
2018-09-10T16:14:29.799Z,7.83
2018-09-10T16:16:58.255Z,7.80
2018-09-10T16:19:26.695Z,7.20
2018-09-10T16:21:55.119Z,8.70
2018-09-10T16:24:23.535Z,7.57
2018-09-10T16:26:51.938Z,8.20
2018-09-10T16:29:20.342Z,7.03
2018-09-10T16:31:48.763Z,7.37
2018-09-10T16:34:17.201Z,8.10
2018-09-10T16:36:45.610Z,7.60
2018-09-10T16:39:14.005Z,8.10
2018-09-10T16:41:42.423Z,6.70
2018-09-10T16:44:10.811Z,7.50
2018-09-10T16:46:39.226Z,6.50
2018-09-10T16:49:07.712Z,6.93
2018-09-10T16:51:36.090Z,7.67
2018-09-10T16:54:04.558Z,6.47
2018-09-10T16:56:32.899Z,6.63
2018-09-10T16:59:01.342Z,7.53
2018-09-10T17:01:29.763Z,7.10
2018-09-10T17:03:58.136Z,6.40
2018-09-10T17:06:26.844Z,6.80
2018-09-10T17:08:55.210Z,6.47
2018-09-10T17:11:23.606Z,6.23
2018-09-10T17:13:51.990Z,5.90
2018-09-10T17:16:27.085Z,5.70
2018-09-10T17:18:55.466Z,6.20
2018-09-10T17:21:23.864Z,6.03
2018-09-10T17:23:52.274Z,6.50
2018-09-10T17:26:20.731Z,6.00
2018-09-10T17:28:49.188Z,5.87
2018-09-10T17:31:17.602Z,5.40
2018-09-10T17:33:46.014Z,5.30
2018-09-10T17:36:14.474Z,5.20
2018-09-10T17:38:42.876Z,4.00
2018-09-10T17:41:11.322Z,4.33
2018-09-10T17:43:39.678Z,5.00
2018-09-10T17:46:08.959Z,4.83
2018-09-10T17:48:37.312Z,5.10
2018-09-10T17:51:05.594Z,5.40
2018-09-10T17:53:33.978Z,5.60
2018-09-10T17:56:02.306Z,5.20
2018-09-10T17:58:30.720Z,5.23
2018-09-10T18:00:59.084Z,6.73
2018-09-10T18:03:27.484Z,5.63
2018-09-10T18:05:55.828Z,5.03
2018-09-10T18:08:24.194Z,5.50
2018-09-10T18:10:52.559Z,5.73
2018-09-10T18:13:21.018Z,5.20
2018-09-10T18:15:49.257Z,5.30
2018-09-10T18:18:17.781Z,4.83
2018-09-10T18:20:46.120Z,5.57
2018-09-10T18:23:14.442Z,4.93
2018-09-10T18:25:42.774Z,5.00
2018-09-10T18:28:11.184Z,4.87
2018-09-10T18:30:39.630Z,5.20
2018-09-10T18:33:08.035Z,5.60
2018-09-10T18:35:36.433Z,4.70
2018-09-10T18:38:04.823Z,5.10
2018-09-10T18:40:33.514Z,4.63
2018-09-10T18:43:02.288Z,4.60
2018-09-10T18:45:30.795Z,4.70
2018-09-10T18:48:06.473Z,4.70
2018-09-10T18:50:34.928Z,4.60
2018-09-10T18:53:03.432Z,4.80
2018-09-10T18:55:32.015Z,4.80
2018-09-10T18:58:00.627Z,4.07
2018-09-10T19:00:29.046Z,4.90
2018-09-10T19:02:57.555Z,4.10
2018-09-10T19:05:26.005Z,4.90
2018-09-10T19:07:55.381Z,4.33
2018-09-10T19:10:23.800Z,4.53
2018-09-10T19:12:53.314Z,3.60
2018-09-10T19:15:22.599Z,4.33
2018-09-10T19:17:51.044Z,4.30
2018-09-10T19:20:20.473Z,3.50
2018-09-10T19:22:50.591Z,4.20
2018-09-10T19:25:19.055Z,3.60
2018-09-10T19:27:47.484Z,3.23
2018-09-10T19:30:15.955Z,3.60
2018-09-10T19:32:44.558Z,3.70
2018-09-10T19:35:12.963Z,3.90
2018-09-10T19:37:41.490Z,3.53
2018-09-10T19:40:09.867Z,4.07
2018-09-10T19:42:38.332Z,4.30
2018-09-10T19:45:06.878Z,4.47
2018-09-10T19:47:35.310Z,3.53
2018-09-10T19:50:03.858Z,3.67
2018-09-10T19:52:32.261Z,3.90
2018-09-10T19:55:00.634Z,3.77
2018-09-10T19:57:29.028Z,3.80
2018-09-10T19:59:57.574Z,3.90
2018-09-10T20:02:26.234Z,4.10
2018-09-10T20:04:54.658Z,4.57
2018-09-10T20:07:23.071Z,3.87
2018-09-10T20:09:51.586Z,4.10
2018-09-10T20:12:20.055Z,4.90
2018-09-10T20:14:48.439Z,4.40
2018-09-10T20:17:16.904Z,4.53
2018-09-10T20:19:45.278Z,4.33
2018-09-10T20:22:15.144Z,4.50
2018-09-10T20:24:43.604Z,4.80
2018-09-10T20:27:12.051Z,4.00
2018-09-10T20:29:40.454Z,4.60
2018-09-10T20:32:09.768Z,4.60
2018-09-10T20:34:38.110Z,4.60
2018-09-10T20:37:06.524Z,4.03
2018-09-10T20:39:34.925Z,5.03
2018-09-10T20:42:03.212Z,4.33
2018-09-10T20:44:31.597Z,5.30
2018-09-10T20:46:59.915Z,4.70
2018-09-10T20:49:28.225Z,5.00
2018-09-10T20:51:56.583Z,4.40
2018-09-10T20:54:24.905Z,4.43
2018-09-10T20:56:53.231Z,5.10
2018-09-10T20:59:21.579Z,4.83
2018-09-10T21:01:49.947Z,5.80
2018-09-10T21:04:18.298Z,4.33
2018-09-10T21:06:46.567Z,4.73
2018-09-10T21:09:14.936Z,4.60
2018-09-10T21:11:43.270Z,4.83
2018-09-10T21:14:11.652Z,4.60
2018-09-10T21:16:39.973Z,3.90
2018-09-10T21:19:08.367Z,4.13
2018-09-10T21:21:36.766Z,4.00
2018-09-10T21:24:05.208Z,4.33
2018-09-10T21:26:33.598Z,4.83
2018-09-10T21:29:01.984Z,5.10
2018-09-10T21:31:30.383Z,4.23
2018-09-10T21:33:58.650Z,4.73
2018-09-10T21:36:27.066Z,4.30
2018-09-10T21:38:55.434Z,4.70
2018-09-10T21:41:23.859Z,4.20
2018-09-10T21:43:52.267Z,4.93
2018-09-10T21:46:20.637Z,4.50
2018-09-10T21:48:49.051Z,5.33
2018-09-10T21:51:17.453Z,5.13
2018-09-10T21:53:45.936Z,5.00
2018-09-10T21:56:14.283Z,5.07
2018-09-10T21:58:42.619Z,5.70
2018-09-10T22:01:11.026Z,5.07
2018-09-10T22:03:39.431Z,5.47
2018-09-10T22:06:07.834Z,4.87
2018-09-10T22:08:36.187Z,4.20
2018-09-10T22:11:04.606Z,5.80
2018-09-10T22:13:32.975Z,6.17
2018-09-10T22:16:01.384Z,5.50
2018-09-10T22:18:29.733Z,6.07
2018-09-10T22:20:58.090Z,7.20
2018-09-10T22:23:26.390Z,6.13
2018-09-10T22:25:54.759Z,7.63
2018-09-10T22:28:23.021Z,7.97
2018-09-10T22:30:51.442Z,7.30
2018-09-10T22:33:19.787Z,6.83
2018-09-10T22:35:48.197Z,6.50
2018-09-10T22:38:16.754Z,6.97
2018-09-10T22:40:45.007Z,7.03
2018-09-10T22:43:13.341Z,6.63
2018-09-10T22:45:41.674Z,6.60
2018-09-10T22:48:10.088Z,6.40
2018-09-10T22:50:38.451Z,6.33
2018-09-10T22:53:06.715Z,6.53
2018-09-10T22:55:35.171Z,6.40
2018-09-10T22:58:03.427Z,5.97
2018-09-10T23:00:31.831Z,6.87
2018-09-10T23:03:00.208Z,6.50
2018-09-10T23:05:28.481Z,6.40
2018-09-10T23:07:56.865Z,6.03
2018-09-10T23:10:25.277Z,5.80
2018-09-10T23:12:53.799Z,7.30
2018-09-10T23:15:22.181Z,6.03
2018-09-10T23:17:50.620Z,6.07
2018-09-10T23:20:19.042Z,6.47
2018-09-10T23:22:47.452Z,5.60
2018-09-10T23:25:15.885Z,6.30
2018-09-10T23:27:44.378Z,6.90
2018-09-10T23:30:12.884Z,6.63
2018-09-10T23:32:41.279Z,6.50
2018-09-10T23:35:09.685Z,5.20
2018-09-10T23:37:38.102Z,6.20
2018-09-10T23:40:06.618Z,5.60
2018-09-10T23:42:35.028Z,6.53
2018-09-10T23:45:03.450Z,6.10
2018-09-10T23:47:31.914Z,6.77
2018-09-10T23:50:00.334Z,7.33
2018-09-10T23:52:28.782Z,6.57
2018-09-10T23:54:57.223Z,6.63
2018-09-10T23:57:25.647Z,6.20
2018-09-10T23:59:54.418Z,5.97
